<?xml version="1.0" encoding="UTF-8"?>
<gpx xmlns="http://www.topografix.com/GPX/1/1" creator="GPSies http://www.gpsies.com - Baden-Baden - Gernsbach" version="1.1" xmlns:xsi="http://www.w3.org/2001/XMLSchema-instance" xsi:schemaLocation="http://www.topografix.com/GPX/1/1 http://www.topografix.com/GPX/1/1/gpx.xsd">
  <metadata>
    <name>Baden-Baden - Gernsbach</name>
    <copyright author="GPSies.com" />
    <link href="http://www.gpsies.com/map.do?fileId=qsphuxmrxtwfcfpc">
      <text>Baden-Baden - Gernsbach on GPSies.com</text>
    </link>
    <time>2008-10-11T22:20:26Z</time>
  </metadata>
  <trk>
    <name>Baden-Baden - Gernsbach on GPSies.com</name>
    <link href="http://www.gpsies.com/map.do?fileId=qsphuxmrxtwfcfpc" />
    <trkseg>
      <trkpt lat="48.76758480" lon="8.232755180">
        <ele>154.00000</ele>
        <time>2008-10-11T22:20:26Z</time>
      </trkpt>
      <trkpt lat="48.76791900" lon="8.232307970">
        <ele>158.00000</ele>
        <time>2008-10-11T22:20:44Z</time>
      </trkpt>
      <trkpt lat="48.76837630" lon="8.233457310">
        <ele>163.00000</ele>
        <time>2008-10-11T22:21:20Z</time>
      </trkpt>
      <trkpt lat="48.76943660" lon="8.234019340">
        <ele>178.00000</ele>
        <time>2008-10-11T22:22:05Z</time>
      </trkpt>
      <trkpt lat="48.76928060" lon="8.234225770">
        <ele>178.00000</ele>
        <time>2008-10-11T22:22:13Z</time>
      </trkpt>
      <trkpt lat="48.76894430" lon="8.234366920">
        <ele>178.00000</ele>
        <time>2008-10-11T22:22:27Z</time>
      </trkpt>
      <trkpt lat="48.76876590" lon="8.234573690">
        <ele>178.00000</ele>
        <time>2008-10-11T22:22:36Z</time>
      </trkpt>
      <trkpt lat="48.76901310" lon="8.234569930">
        <ele>178.00000</ele>
        <time>2008-10-11T22:22:46Z</time>
      </trkpt>
      <trkpt lat="48.76921680" lon="8.234770890">
        <ele>198.00000</ele>
        <time>2008-10-11T22:22:55Z</time>
      </trkpt>
      <trkpt lat="48.76942160" lon="8.235141890">
        <ele>198.00000</ele>
        <time>2008-10-11T22:23:08Z</time>
      </trkpt>
      <trkpt lat="48.76933190" lon="8.235177260">
        <ele>198.00000</ele>
        <time>2008-10-11T22:23:12Z</time>
      </trkpt>
      <trkpt lat="48.76931330" lon="8.235755710">
        <ele>210.00000</ele>
        <time>2008-10-11T22:23:27Z</time>
      </trkpt>
      <trkpt lat="48.76936340" lon="8.236537180">
        <ele>215.00000</ele>
        <time>2008-10-11T22:23:48Z</time>
      </trkpt>
      <trkpt lat="48.76954390" lon="8.236636470">
        <ele>215.00000</ele>
        <time>2008-10-11T22:23:56Z</time>
      </trkpt>
      <trkpt lat="48.76979210" lon="8.236768750">
        <ele>211.00000</ele>
        <time>2008-10-11T22:24:06Z</time>
      </trkpt>
      <trkpt lat="48.77006450" lon="8.237172740">
        <ele>216.00000</ele>
        <time>2008-10-11T22:24:21Z</time>
      </trkpt>
      <trkpt lat="48.77038240" lon="8.237644070">
        <ele>216.00000</ele>
        <time>2008-10-11T22:24:39Z</time>
      </trkpt>
      <trkpt lat="48.77077080" lon="8.238590490">
        <ele>227.00000</ele>
        <time>2008-10-11T22:25:09Z</time>
      </trkpt>
      <trkpt lat="48.77084030" lon="8.238895540">
        <ele>244.00000</ele>
        <time>2008-10-11T22:25:17Z</time>
      </trkpt>
      <trkpt lat="48.77124850" lon="8.239433540">
        <ele>244.00000</ele>
        <time>2008-10-11T22:25:39Z</time>
      </trkpt>
      <trkpt lat="48.77163440" lon="8.240005910">
        <ele>248.00000</ele>
        <time>2008-10-11T22:26:00Z</time>
      </trkpt>
      <trkpt lat="48.77172660" lon="8.240344630">
        <ele>248.00000</ele>
        <time>2008-10-11T22:26:10Z</time>
      </trkpt>
      <trkpt lat="48.77172910" lon="8.240718720">
        <ele>259.00000</ele>
        <time>2008-10-11T22:26:20Z</time>
      </trkpt>
      <trkpt lat="48.77162090" lon="8.241366560">
        <ele>271.00000</ele>
        <time>2008-10-11T22:26:38Z</time>
      </trkpt>
      <trkpt lat="48.77166770" lon="8.241637950">
        <ele>271.00000</ele>
        <time>2008-10-11T22:26:45Z</time>
      </trkpt>
      <trkpt lat="48.77189400" lon="8.241872620">
        <ele>271.00000</ele>
        <time>2008-10-11T22:26:56Z</time>
      </trkpt>
      <trkpt lat="48.77232200" lon="8.242002220">
        <ele>273.00000</ele>
        <time>2008-10-11T22:27:13Z</time>
      </trkpt>
      <trkpt lat="48.77268150" lon="8.241962800">
        <ele>273.00000</ele>
        <time>2008-10-11T22:27:28Z</time>
      </trkpt>
      <trkpt lat="48.77321960" lon="8.241750620">
        <ele>287.00000</ele>
        <time>2008-10-11T22:27:50Z</time>
      </trkpt>
      <trkpt lat="48.77359980" lon="8.241438790">
        <ele>287.00000</ele>
        <time>2008-10-11T22:28:07Z</time>
      </trkpt>
      <trkpt lat="48.77400330" lon="8.241262640">
        <ele>306.00000</ele>
        <time>2008-10-11T22:28:24Z</time>
      </trkpt>
      <trkpt lat="48.77436180" lon="8.241087170">
        <ele>293.00000</ele>
        <time>2008-10-11T22:28:39Z</time>
      </trkpt>
      <trkpt lat="48.77447240" lon="8.240813400">
        <ele>293.00000</ele>
        <time>2008-10-11T22:28:48Z</time>
      </trkpt>
      <trkpt lat="48.77437930" lon="8.240338620">
        <ele>290.00000</ele>
        <time>2008-10-11T22:29:01Z</time>
      </trkpt>
      <trkpt lat="48.77439960" lon="8.239998180">
        <ele>290.00000</ele>
        <time>2008-10-11T22:29:10Z</time>
      </trkpt>
      <trkpt lat="48.77449170" lon="8.240336920">
        <ele>290.00000</ele>
        <time>2008-10-11T22:29:19Z</time>
      </trkpt>
      <trkpt lat="48.77474190" lon="8.240775320">
        <ele>318.00000</ele>
        <time>2008-10-11T22:29:35Z</time>
      </trkpt>
      <trkpt lat="48.77476750" lon="8.241251120">
        <ele>331.00000</ele>
        <time>2008-10-11T22:29:47Z</time>
      </trkpt>
      <trkpt lat="48.77470300" lon="8.241694270">
        <ele>331.00000</ele>
        <time>2008-10-11T22:29:59Z</time>
      </trkpt>
      <trkpt lat="48.77439170" lon="8.242209160">
        <ele>321.00000</ele>
        <time>2008-10-11T22:30:18Z</time>
      </trkpt>
      <trkpt lat="48.77414710" lon="8.242620990">
        <ele>321.00000</ele>
        <time>2008-10-11T22:30:32Z</time>
      </trkpt>
      <trkpt lat="48.77399370" lon="8.243235530">
        <ele>333.00000</ele>
        <time>2008-10-11T22:30:50Z</time>
      </trkpt>
      <trkpt lat="48.77437370" lon="8.242889690">
        <ele>321.00000</ele>
        <time>2008-10-11T22:31:07Z</time>
      </trkpt>
      <trkpt lat="48.77482170" lon="8.242644860">
        <ele>345.00000</ele>
        <time>2008-10-11T22:31:27Z</time>
      </trkpt>
      <trkpt lat="48.77533510" lon="8.242092920">
        <ele>345.00000</ele>
        <time>2008-10-11T22:31:52Z</time>
      </trkpt>
      <trkpt lat="48.77513750" lon="8.242810180">
        <ele>345.00000</ele>
        <time>2008-10-11T22:32:12Z</time>
      </trkpt>
      <trkpt lat="48.77507540" lon="8.243627440">
        <ele>361.00000</ele>
        <time>2008-10-11T22:32:34Z</time>
      </trkpt>
      <trkpt lat="48.77485640" lon="8.244515080">
        <ele>372.00000</ele>
        <time>2008-10-11T22:32:59Z</time>
      </trkpt>
      <trkpt lat="48.77479370" lon="8.245230300">
        <ele>382.00000</ele>
        <time>2008-10-11T22:33:18Z</time>
      </trkpt>
      <trkpt lat="48.77464340" lon="8.246320980">
        <ele>401.00000</ele>
        <time>2008-10-11T22:33:47Z</time>
      </trkpt>
      <trkpt lat="48.77480080" lon="8.246318630">
        <ele>401.00000</ele>
        <time>2008-10-11T22:33:54Z</time>
      </trkpt>
      <trkpt lat="48.77527040" lon="8.245937450">
        <ele>392.00000</ele>
        <time>2008-10-11T22:34:15Z</time>
      </trkpt>
      <trkpt lat="48.77567320" lon="8.245659300">
        <ele>422.00000</ele>
        <time>2008-10-11T22:34:33Z</time>
      </trkpt>
      <trkpt lat="48.77596280" lon="8.245246790">
        <ele>413.00000</ele>
        <time>2008-10-11T22:34:49Z</time>
      </trkpt>
      <trkpt lat="48.77622920" lon="8.244732580">
        <ele>413.00000</ele>
        <time>2008-10-11T22:35:06Z</time>
      </trkpt>
      <trkpt lat="48.77627620" lon="8.245038000">
        <ele>443.00000</ele>
        <time>2008-10-11T22:35:14Z</time>
      </trkpt>
      <trkpt lat="48.77623630" lon="8.245820930">
        <ele>422.00000</ele>
        <time>2008-10-11T22:35:35Z</time>
      </trkpt>
      <trkpt lat="48.77615240" lon="8.246740580">
        <ele>428.00000</ele>
        <time>2008-10-11T22:35:59Z</time>
      </trkpt>
      <trkpt lat="48.77597880" lon="8.247695580">
        <ele>437.00000</ele>
        <time>2008-10-11T22:36:25Z</time>
      </trkpt>
      <trkpt lat="48.77614880" lon="8.249631850">
        <ele>453.00000</ele>
        <time>2008-10-11T22:37:17Z</time>
      </trkpt>
      <trkpt lat="48.77611690" lon="8.251639170">
        <ele>460.00000</ele>
        <time>2008-10-11T22:38:10Z</time>
      </trkpt>
      <trkpt lat="48.77583040" lon="8.252527800">
        <ele>462.00000</ele>
        <time>2008-10-11T22:38:36Z</time>
      </trkpt>
      <trkpt lat="48.77567860" lon="8.253380410">
        <ele>462.00000</ele>
        <time>2008-10-11T22:38:59Z</time>
      </trkpt>
      <trkpt lat="48.77526530" lon="8.255529400">
        <ele>421.00000</ele>
        <time>2008-10-11T22:39:58Z</time>
      </trkpt>
      <trkpt lat="48.77504730" lon="8.256587050">
        <ele>418.00000</ele>
        <time>2008-10-11T22:40:28Z</time>
      </trkpt>
      <trkpt lat="48.77491790" lon="8.257439290">
        <ele>421.00000</ele>
        <time>2008-10-11T22:40:51Z</time>
      </trkpt>
      <trkpt lat="48.77467750" lon="8.258497250">
        <ele>426.00000</ele>
        <time>2008-10-11T22:41:20Z</time>
      </trkpt>
      <trkpt lat="48.77463690" lon="8.259178120">
        <ele>421.00000</ele>
        <time>2008-10-11T22:41:38Z</time>
      </trkpt>
      <trkpt lat="48.77471040" lon="8.260129410">
        <ele>421.00000</ele>
        <time>2008-10-11T22:42:04Z</time>
      </trkpt>
      <trkpt lat="48.77471500" lon="8.260843620">
        <ele>420.00000</ele>
        <time>2008-10-11T22:42:22Z</time>
      </trkpt>
      <trkpt lat="48.77465280" lon="8.261660860">
        <ele>424.00000</ele>
        <time>2008-10-11T22:42:44Z</time>
      </trkpt>
      <trkpt lat="48.77447780" lon="8.262411720">
        <ele>389.00000</ele>
        <time>2008-10-11T22:43:05Z</time>
      </trkpt>
      <trkpt lat="48.77443610" lon="8.262922520">
        <ele>395.00000</ele>
        <time>2008-10-11T22:43:19Z</time>
      </trkpt>
      <trkpt lat="48.77419510" lon="8.263912430">
        <ele>408.00000</ele>
        <time>2008-10-11T22:43:46Z</time>
      </trkpt>
      <trkpt lat="48.77395460" lon="8.264970340">
        <ele>417.00000</ele>
        <time>2008-10-11T22:44:16Z</time>
      </trkpt>
      <trkpt lat="48.77371400" lon="8.266028250">
        <ele>378.00000</ele>
        <time>2008-10-11T22:44:46Z</time>
      </trkpt>
      <trkpt lat="48.77405960" lon="8.267349720">
        <ele>411.00000</ele>
        <time>2008-10-11T22:45:23Z</time>
      </trkpt>
      <trkpt lat="48.77406400" lon="8.268029910">
        <ele>404.00000</ele>
        <time>2008-10-11T22:45:41Z</time>
      </trkpt>
      <trkpt lat="48.77397840" lon="8.268711410">
        <ele>404.00000</ele>
        <time>2008-10-11T22:45:59Z</time>
      </trkpt>
      <trkpt lat="48.77402630" lon="8.269186900">
        <ele>400.00000</ele>
        <time>2008-10-11T22:46:12Z</time>
      </trkpt>
      <trkpt lat="48.77416550" lon="8.269865140">
        <ele>393.00000</ele>
        <time>2008-10-11T22:46:31Z</time>
      </trkpt>
      <trkpt lat="48.77412380" lon="8.270375940">
        <ele>393.00000</ele>
        <time>2008-10-11T22:46:44Z</time>
      </trkpt>
      <trkpt lat="48.77401400" lon="8.270785680">
        <ele>391.00000</ele>
        <time>2008-10-11T22:46:56Z</time>
      </trkpt>
      <trkpt lat="48.77394930" lon="8.271228780">
        <ele>391.00000</ele>
        <time>2008-10-11T22:47:08Z</time>
      </trkpt>
      <trkpt lat="48.77409050" lon="8.272213120">
        <ele>394.00000</ele>
        <time>2008-10-11T22:47:35Z</time>
      </trkpt>
      <trkpt lat="48.77416240" lon="8.272926350">
        <ele>391.00000</ele>
        <time>2008-10-11T22:47:54Z</time>
      </trkpt>
      <trkpt lat="48.77407400" lon="8.273165720">
        <ele>391.00000</ele>
        <time>2008-10-11T22:48:01Z</time>
      </trkpt>
      <trkpt lat="48.77391710" lon="8.273236010">
        <ele>391.00000</ele>
        <time>2008-10-11T22:48:07Z</time>
      </trkpt>
      <trkpt lat="48.77389800" lon="8.273780490">
        <ele>386.00000</ele>
        <time>2008-10-11T22:48:22Z</time>
      </trkpt>
      <trkpt lat="48.77376210" lon="8.273612390">
        <ele>391.00000</ele>
        <time>2008-10-11T22:48:29Z</time>
      </trkpt>
      <trkpt lat="48.77374110" lon="8.273850780">
        <ele>369.00000</ele>
        <time>2008-10-11T22:48:35Z</time>
      </trkpt>
      <trkpt lat="48.77378900" lon="8.274326260">
        <ele>386.00000</ele>
        <time>2008-10-11T22:48:48Z</time>
      </trkpt>
      <trkpt lat="48.77370110" lon="8.274633650">
        <ele>373.00000</ele>
        <time>2008-10-11T22:48:57Z</time>
      </trkpt>
      <trkpt lat="48.77365800" lon="8.274940380">
        <ele>373.00000</ele>
        <time>2008-10-11T22:49:05Z</time>
      </trkpt>
      <trkpt lat="48.77325300" lon="8.274878190">
        <ele>373.00000</ele>
        <time>2008-10-11T22:49:21Z</time>
      </trkpt>
      <trkpt lat="48.77300630" lon="8.274983780">
        <ele>373.00000</ele>
        <time>2008-10-11T22:49:31Z</time>
      </trkpt>
      <trkpt lat="48.77271540" lon="8.275192040">
        <ele>370.00000</ele>
        <time>2008-10-11T22:49:44Z</time>
      </trkpt>
      <trkpt lat="48.77229150" lon="8.275708320">
        <ele>386.00000</ele>
        <time>2008-10-11T22:50:06Z</time>
      </trkpt>
      <trkpt lat="48.77208980" lon="8.275813250">
        <ele>386.00000</ele>
        <time>2008-10-11T22:50:15Z</time>
      </trkpt>
      <trkpt lat="48.77161820" lon="8.275888060">
        <ele>387.00000</ele>
        <time>2008-10-11T22:50:34Z</time>
      </trkpt>
      <trkpt lat="48.77145980" lon="8.275720280">
        <ele>387.00000</ele>
        <time>2008-10-11T22:50:41Z</time>
      </trkpt>
      <trkpt lat="48.77143490" lon="8.275346510">
        <ele>369.00000</ele>
        <time>2008-10-11T22:50:51Z</time>
      </trkpt>
      <trkpt lat="48.77143110" lon="8.274734370">
        <ele>369.00000</ele>
        <time>2008-10-11T22:51:07Z</time>
      </trkpt>
      <trkpt lat="48.77133800" lon="8.274225540">
        <ele>357.00000</ele>
        <time>2008-10-11T22:51:21Z</time>
      </trkpt>
      <trkpt lat="48.77122340" lon="8.273887090">
        <ele>380.00000</ele>
        <time>2008-10-11T22:51:31Z</time>
      </trkpt>
      <trkpt lat="48.77097470" lon="8.273652600">
        <ele>367.00000</ele>
        <time>2008-10-11T22:51:43Z</time>
      </trkpt>
      <trkpt lat="48.77068220" lon="8.273622810">
        <ele>367.00000</ele>
        <time>2008-10-11T22:51:55Z</time>
      </trkpt>
      <trkpt lat="48.77041290" lon="8.273694710">
        <ele>367.00000</ele>
        <time>2008-10-11T22:52:06Z</time>
      </trkpt>
      <trkpt lat="48.76994230" lon="8.273939570">
        <ele>388.00000</ele>
        <time>2008-10-11T22:52:26Z</time>
      </trkpt>
      <trkpt lat="48.76971780" lon="8.273976820">
        <ele>388.00000</ele>
        <time>2008-10-11T22:52:35Z</time>
      </trkpt>
      <trkpt lat="48.76955910" lon="8.273775050">
        <ele>406.00000</ele>
        <time>2008-10-11T22:52:43Z</time>
      </trkpt>
      <trkpt lat="48.76948760" lon="8.273129890">
        <ele>384.00000</ele>
        <time>2008-10-11T22:53:00Z</time>
      </trkpt>
      <trkpt lat="48.76937180" lon="8.272587410">
        <ele>372.00000</ele>
        <time>2008-10-11T22:53:15Z</time>
      </trkpt>
      <trkpt lat="48.76916710" lon="8.272216260">
        <ele>372.00000</ele>
        <time>2008-10-11T22:53:28Z</time>
      </trkpt>
      <trkpt lat="48.76862310" lon="8.271509920">
        <ele>383.00000</ele>
        <time>2008-10-11T22:53:57Z</time>
      </trkpt>
      <trkpt lat="48.76839570" lon="8.271105100">
        <ele>370.00000</ele>
        <time>2008-10-11T22:54:11Z</time>
      </trkpt>
      <trkpt lat="48.76828100" lon="8.270732670">
        <ele>370.00000</ele>
        <time>2008-10-11T22:54:22Z</time>
      </trkpt>
      <trkpt lat="48.76820960" lon="8.270121540">
        <ele>355.00000</ele>
        <time>2008-10-11T22:54:38Z</time>
      </trkpt>
      <trkpt lat="48.76809530" lon="8.269817110">
        <ele>355.00000</ele>
        <time>2008-10-11T22:54:47Z</time>
      </trkpt>
      <trkpt lat="48.76791420" lon="8.269615690">
        <ele>373.00000</ele>
        <time>2008-10-11T22:54:56Z</time>
      </trkpt>
      <trkpt lat="48.76777870" lon="8.269515630">
        <ele>358.00000</ele>
        <time>2008-10-11T22:55:02Z</time>
      </trkpt>
      <trkpt lat="48.76773280" lon="8.269380260">
        <ele>358.00000</ele>
        <time>2008-10-11T22:55:06Z</time>
      </trkpt>
      <trkpt lat="48.76730400" lon="8.269114410">
        <ele>358.00000</ele>
        <time>2008-10-11T22:55:25Z</time>
      </trkpt>
      <trkpt lat="48.76662750" lon="8.268784150">
        <ele>348.00000</ele>
        <time>2008-10-11T22:55:53Z</time>
      </trkpt>
      <trkpt lat="48.76651400" lon="8.268615760">
        <ele>337.00000</ele>
        <time>2008-10-11T22:56:00Z</time>
      </trkpt>
      <trkpt lat="48.76646750" lon="8.268378380">
        <ele>337.00000</ele>
        <time>2008-10-11T22:56:06Z</time>
      </trkpt>
      <trkpt lat="48.76653240" lon="8.267969340">
        <ele>337.00000</ele>
        <time>2008-10-11T22:56:17Z</time>
      </trkpt>
      <trkpt lat="48.76664150" lon="8.267457640">
        <ele>326.00000</ele>
        <time>2008-10-11T22:56:31Z</time>
      </trkpt>
      <trkpt lat="48.76657060" lon="8.266914540">
        <ele>317.00000</ele>
        <time>2008-10-11T22:56:46Z</time>
      </trkpt>
      <trkpt lat="48.76641110" lon="8.266576790">
        <ele>317.00000</ele>
        <time>2008-10-11T22:56:57Z</time>
      </trkpt>
      <trkpt lat="48.76620840" lon="8.266511730">
        <ele>309.00000</ele>
        <time>2008-10-11T22:57:05Z</time>
      </trkpt>
      <trkpt lat="48.76578300" lon="8.266789980">
        <ele>309.00000</ele>
        <time>2008-10-11T22:57:24Z</time>
      </trkpt>
      <trkpt lat="48.76567000" lon="8.266689600">
        <ele>309.00000</ele>
        <time>2008-10-11T22:57:29Z</time>
      </trkpt>
      <trkpt lat="48.76560080" lon="8.266418550">
        <ele>309.00000</ele>
        <time>2008-10-11T22:57:37Z</time>
      </trkpt>
      <trkpt lat="48.76552970" lon="8.265841470">
        <ele>302.00000</ele>
        <time>2008-10-11T22:57:52Z</time>
      </trkpt>
      <trkpt lat="48.76536990" lon="8.265469720">
        <ele>301.00000</ele>
        <time>2008-10-11T22:58:04Z</time>
      </trkpt>
      <trkpt lat="48.76514380" lon="8.265268970">
        <ele>294.00000</ele>
        <time>2008-10-11T22:58:14Z</time>
      </trkpt>
      <trkpt lat="48.76458170" lon="8.265243170">
        <ele>294.00000</ele>
        <time>2008-10-11T22:58:37Z</time>
      </trkpt>
      <trkpt lat="48.76440120" lon="8.265143780">
        <ele>293.00000</ele>
        <time>2008-10-11T22:58:45Z</time>
      </trkpt>
      <trkpt lat="48.76369690" lon="8.263997860">
        <ele>298.00000</ele>
        <time>2008-10-11T22:59:26Z</time>
      </trkpt>
      <trkpt lat="48.76351620" lon="8.263864470">
        <ele>298.00000</ele>
        <time>2008-10-11T22:59:34Z</time>
      </trkpt>
      <trkpt lat="48.76333730" lon="8.264003110">
        <ele>298.00000</ele>
        <time>2008-10-11T22:59:42Z</time>
      </trkpt>
      <trkpt lat="48.76306880" lon="8.264211070">
        <ele>298.00000</ele>
        <time>2008-10-11T22:59:54Z</time>
      </trkpt>
      <trkpt lat="48.76288940" lon="8.264281700">
        <ele>301.00000</ele>
        <time>2008-10-11T23:00:02Z</time>
      </trkpt>
      <trkpt lat="48.76293660" lon="8.264621070">
        <ele>312.00000</ele>
        <time>2008-10-11T23:00:11Z</time>
      </trkpt>
      <trkpt lat="48.76476080" lon="8.272211920">
        <ele>440.00000</ele>
        <time>2008-10-11T23:03:44Z</time>
      </trkpt>
      <trkpt lat="48.76512180" lon="8.279586190">
        <ele>660.00000</ele>
        <time>2008-10-11T23:06:59Z</time>
      </trkpt>
      <trkpt lat="48.76491890" lon="8.279487080">
        <ele>643.00000</ele>
        <time>2008-10-11T23:07:08Z</time>
      </trkpt>
      <trkpt lat="48.76458130" lon="8.279423890">
        <ele>633.00000</ele>
        <time>2008-10-11T23:07:21Z</time>
      </trkpt>
      <trkpt lat="48.76426760" lon="8.279598410">
        <ele>655.00000</ele>
        <time>2008-10-11T23:07:35Z</time>
      </trkpt>
      <trkpt lat="48.76402230" lon="8.279907980">
        <ele>655.00000</ele>
        <time>2008-10-11T23:07:47Z</time>
      </trkpt>
      <trkpt lat="48.76382250" lon="8.280318900">
        <ele>655.00000</ele>
        <time>2008-10-11T23:08:01Z</time>
      </trkpt>
      <trkpt lat="48.76366830" lon="8.280831200">
        <ele>633.00000</ele>
        <time>2008-10-11T23:08:16Z</time>
      </trkpt>
      <trkpt lat="48.76364860" lon="8.281273550">
        <ele>630.00000</ele>
        <time>2008-10-11T23:08:27Z</time>
      </trkpt>
      <trkpt lat="48.76371990" lon="8.281884640">
        <ele>630.00000</ele>
        <time>2008-10-11T23:08:44Z</time>
      </trkpt>
      <trkpt lat="48.76378980" lon="8.282291720">
        <ele>648.00000</ele>
        <time>2008-10-11T23:08:55Z</time>
      </trkpt>
      <trkpt lat="48.76370060" lon="8.282395010">
        <ele>628.00000</ele>
        <time>2008-10-11T23:08:59Z</time>
      </trkpt>
      <trkpt lat="48.76388340" lon="8.282868490">
        <ele>648.00000</ele>
        <time>2008-10-11T23:09:14Z</time>
      </trkpt>
      <trkpt lat="48.76413440" lon="8.283477020">
        <ele>639.00000</ele>
        <time>2008-10-11T23:09:33Z</time>
      </trkpt>
      <trkpt lat="48.76442900" lon="8.283846900">
        <ele>621.00000</ele>
        <time>2008-10-11T23:09:48Z</time>
      </trkpt>
      <trkpt lat="48.76472190" lon="8.283944760">
        <ele>615.00000</ele>
        <time>2008-10-11T23:10:00Z</time>
      </trkpt>
      <trkpt lat="48.76492290" lon="8.283737860">
        <ele>631.00000</ele>
        <time>2008-10-11T23:10:10Z</time>
      </trkpt>
      <trkpt lat="48.76530150" lon="8.283154360">
        <ele>631.00000</ele>
        <time>2008-10-11T23:10:31Z</time>
      </trkpt>
      <trkpt lat="48.76576740" lon="8.282161510">
        <ele>591.00000</ele>
        <time>2008-10-11T23:11:04Z</time>
      </trkpt>
      <trkpt lat="48.76610100" lon="8.281578630">
        <ele>604.00000</ele>
        <time>2008-10-11T23:11:24Z</time>
      </trkpt>
      <trkpt lat="48.76656940" lon="8.280993820">
        <ele>590.00000</ele>
        <time>2008-10-11T23:11:48Z</time>
      </trkpt>
      <trkpt lat="48.76663730" lon="8.281060860">
        <ele>590.00000</ele>
        <time>2008-10-11T23:11:51Z</time>
      </trkpt>
      <trkpt lat="48.76639660" lon="8.282118540">
        <ele>561.00000</ele>
        <time>2008-10-11T23:12:21Z</time>
      </trkpt>
      <trkpt lat="48.76629010" lon="8.283072270">
        <ele>555.00000</ele>
        <time>2008-10-11T23:12:46Z</time>
      </trkpt>
      <trkpt lat="48.76623280" lon="8.284705450">
        <ele>578.00000</ele>
        <time>2008-10-11T23:13:30Z</time>
      </trkpt>
      <trkpt lat="48.76621560" lon="8.285555890">
        <ele>569.00000</ele>
        <time>2008-10-11T23:13:52Z</time>
      </trkpt>
      <trkpt lat="48.76615220" lon="8.286202930">
        <ele>569.00000</ele>
        <time>2008-10-11T23:14:09Z</time>
      </trkpt>
      <trkpt lat="48.76602000" lon="8.286646900">
        <ele>551.00000</ele>
        <time>2008-10-11T23:14:22Z</time>
      </trkpt>
      <trkpt lat="48.76579710" lon="8.286956120">
        <ele>551.00000</ele>
        <time>2008-10-11T23:14:34Z</time>
      </trkpt>
      <trkpt lat="48.76541540" lon="8.287029540">
        <ele>551.00000</ele>
        <time>2008-10-11T23:14:50Z</time>
      </trkpt>
      <trkpt lat="48.76480720" lon="8.286834110">
        <ele>551.00000</ele>
        <time>2008-10-11T23:15:15Z</time>
      </trkpt>
      <trkpt lat="48.76435620" lon="8.286602450">
        <ele>535.00000</ele>
        <time>2008-10-11T23:15:34Z</time>
      </trkpt>
      <trkpt lat="48.76399540" lon="8.286437530">
        <ele>535.00000</ele>
        <time>2008-10-11T23:15:49Z</time>
      </trkpt>
      <trkpt lat="48.76356830" lon="8.286443580">
        <ele>523.00000</ele>
        <time>2008-10-11T23:16:06Z</time>
      </trkpt>
      <trkpt lat="48.76309480" lon="8.286212250">
        <ele>553.00000</ele>
        <time>2008-10-11T23:16:26Z</time>
      </trkpt>
      <trkpt lat="48.76250840" lon="8.285914520">
        <ele>539.00000</ele>
        <time>2008-10-11T23:16:50Z</time>
      </trkpt>
      <trkpt lat="48.76223830" lon="8.285850340">
        <ele>539.00000</ele>
        <time>2008-10-11T23:17:01Z</time>
      </trkpt>
      <trkpt lat="48.76169710" lon="8.285585980">
        <ele>523.00000</ele>
        <time>2008-10-11T23:17:24Z</time>
      </trkpt>
      <trkpt lat="48.76151490" lon="8.285214510">
        <ele>540.00000</ele>
        <time>2008-10-11T23:17:36Z</time>
      </trkpt>
      <trkpt lat="48.76101720" lon="8.284711510">
        <ele>518.00000</ele>
        <time>2008-10-11T23:18:00Z</time>
      </trkpt>
      <trkpt lat="48.76052100" lon="8.284446530">
        <ele>525.00000</ele>
        <time>2008-10-11T23:18:21Z</time>
      </trkpt>
      <trkpt lat="48.76027410" lon="8.284518040">
        <ele>517.00000</ele>
        <time>2008-10-11T23:18:31Z</time>
      </trkpt>
      <trkpt lat="48.76002770" lon="8.284657560">
        <ele>517.00000</ele>
        <time>2008-10-11T23:18:42Z</time>
      </trkpt>
      <trkpt lat="48.75969160" lon="8.284832340">
        <ele>517.00000</ele>
        <time>2008-10-11T23:18:56Z</time>
      </trkpt>
      <trkpt lat="48.75935440" lon="8.284837130">
        <ele>532.00000</ele>
        <time>2008-10-11T23:19:10Z</time>
      </trkpt>
      <trkpt lat="48.75897030" lon="8.284536560">
        <ele>528.00000</ele>
        <time>2008-10-11T23:19:27Z</time>
      </trkpt>
      <trkpt lat="48.75840410" lon="8.283864550">
        <ele>553.00000</ele>
        <time>2008-10-11T23:19:56Z</time>
      </trkpt>
      <trkpt lat="48.75801900" lon="8.283394000">
        <ele>534.00000</ele>
        <time>2008-10-11T23:20:16Z</time>
      </trkpt>
      <trkpt lat="48.75765750" lon="8.283093130">
        <ele>564.00000</ele>
        <time>2008-10-11T23:20:32Z</time>
      </trkpt>
      <trkpt lat="48.75711580" lon="8.282760820">
        <ele>546.00000</ele>
        <time>2008-10-11T23:20:55Z</time>
      </trkpt>
      <trkpt lat="48.75662020" lon="8.282597870">
        <ele>566.00000</ele>
        <time>2008-10-11T23:21:16Z</time>
      </trkpt>
      <trkpt lat="48.75601250" lon="8.282470520">
        <ele>570.00000</ele>
        <time>2008-10-11T23:21:40Z</time>
      </trkpt>
      <trkpt lat="48.75551860" lon="8.282579560">
        <ele>570.00000</ele>
        <time>2008-10-11T23:22:00Z</time>
      </trkpt>
      <trkpt lat="48.75529480" lon="8.282752740">
        <ele>552.00000</ele>
        <time>2008-10-11T23:22:10Z</time>
      </trkpt>
      <trkpt lat="48.75502740" lon="8.283130550">
        <ele>565.00000</ele>
        <time>2008-10-11T23:22:25Z</time>
      </trkpt>
      <trkpt lat="48.75476310" lon="8.284018310">
        <ele>573.00000</ele>
        <time>2008-10-11T23:22:51Z</time>
      </trkpt>
      <trkpt lat="48.75456720" lon="8.285041090">
        <ele>540.00000</ele>
        <time>2008-10-11T23:23:19Z</time>
      </trkpt>
      <trkpt lat="48.75441630" lon="8.286097220">
        <ele>544.00000</ele>
        <time>2008-10-11T23:23:47Z</time>
      </trkpt>
      <trkpt lat="48.75441990" lon="8.286675160">
        <ele>541.00000</ele>
        <time>2008-10-11T23:24:03Z</time>
      </trkpt>
      <trkpt lat="48.75460460" lon="8.287454540">
        <ele>576.00000</ele>
        <time>2008-10-11T23:24:24Z</time>
      </trkpt>
      <trkpt lat="48.75463190" lon="8.288236150">
        <ele>567.00000</ele>
        <time>2008-10-11T23:24:45Z</time>
      </trkpt>
      <trkpt lat="48.75456910" lon="8.288985030">
        <ele>514.00000</ele>
        <time>2008-10-11T23:25:05Z</time>
      </trkpt>
      <trkpt lat="48.75437240" lon="8.289905790">
        <ele>518.00000</ele>
        <time>2008-10-11T23:25:31Z</time>
      </trkpt>
      <trkpt lat="48.75433100" lon="8.290484370">
        <ele>519.00000</ele>
        <time>2008-10-11T23:25:46Z</time>
      </trkpt>
      <trkpt lat="48.75447160" lon="8.291400380">
        <ele>507.00000</ele>
        <time>2008-10-11T23:26:11Z</time>
      </trkpt>
      <trkpt lat="48.75454340" lon="8.292113370">
        <ele>501.00000</ele>
        <time>2008-10-11T23:26:30Z</time>
      </trkpt>
      <trkpt lat="48.75452470" lon="8.292725620">
        <ele>501.00000</ele>
        <time>2008-10-11T23:26:46Z</time>
      </trkpt>
      <trkpt lat="48.75439400" lon="8.293407450">
        <ele>497.00000</ele>
        <time>2008-10-11T23:27:05Z</time>
      </trkpt>
      <trkpt lat="48.75421720" lon="8.293919920">
        <ele>495.00000</ele>
        <time>2008-10-11T23:27:20Z</time>
      </trkpt>
      <trkpt lat="48.75392790" lon="8.294399970">
        <ele>495.00000</ele>
        <time>2008-10-11T23:27:37Z</time>
      </trkpt>
      <trkpt lat="48.75359340" lon="8.294846640">
        <ele>474.00000</ele>
        <time>2008-10-11T23:27:55Z</time>
      </trkpt>
      <trkpt lat="48.75339430" lon="8.295359410">
        <ele>474.00000</ele>
        <time>2008-10-11T23:28:11Z</time>
      </trkpt>
      <trkpt lat="48.75293050" lon="8.296725840">
        <ele>468.00000</ele>
        <time>2008-10-11T23:28:51Z</time>
      </trkpt>
      <trkpt lat="48.75255230" lon="8.297377090">
        <ele>450.00000</ele>
        <time>2008-10-11T23:29:14Z</time>
      </trkpt>
      <trkpt lat="48.75226130" lon="8.297585140">
        <ele>450.00000</ele>
        <time>2008-10-11T23:29:27Z</time>
      </trkpt>
      <trkpt lat="48.75196930" lon="8.297623210">
        <ele>444.00000</ele>
        <time>2008-10-11T23:29:39Z</time>
      </trkpt>
      <trkpt lat="48.75138440" lon="8.297563360">
        <ele>444.00000</ele>
        <time>2008-10-11T23:30:02Z</time>
      </trkpt>
      <trkpt lat="48.75084410" lon="8.297434910">
        <ele>436.00000</ele>
        <time>2008-10-11T23:30:24Z</time>
      </trkpt>
      <trkpt lat="48.75052870" lon="8.297337310">
        <ele>436.00000</ele>
        <time>2008-10-11T23:30:37Z</time>
      </trkpt>
      <trkpt lat="48.74994200" lon="8.296971530">
        <ele>416.00000</ele>
        <time>2008-10-11T23:31:02Z</time>
      </trkpt>
      <trkpt lat="48.74969430" lon="8.296906990">
        <ele>416.00000</ele>
        <time>2008-10-11T23:31:12Z</time>
      </trkpt>
      <trkpt lat="48.74958230" lon="8.296976550">
        <ele>416.00000</ele>
        <time>2008-10-11T23:31:17Z</time>
      </trkpt>
      <trkpt lat="48.74956130" lon="8.297214820">
        <ele>408.00000</ele>
        <time>2008-10-11T23:31:24Z</time>
      </trkpt>
      <trkpt lat="48.74967700" lon="8.297757150">
        <ele>426.00000</ele>
        <time>2008-10-11T23:31:39Z</time>
      </trkpt>
      <trkpt lat="48.74967870" lon="8.298029090">
        <ele>431.00000</ele>
        <time>2008-10-11T23:31:46Z</time>
      </trkpt>
      <trkpt lat="48.74961250" lon="8.298233990">
        <ele>431.00000</ele>
        <time>2008-10-11T23:31:52Z</time>
      </trkpt>
      <trkpt lat="48.74938950" lon="8.298543070">
        <ele>408.00000</ele>
        <time>2008-10-11T23:32:04Z</time>
      </trkpt>
      <trkpt lat="48.74923420" lon="8.298885190">
        <ele>413.00000</ele>
        <time>2008-10-11T23:32:15Z</time>
      </trkpt>
      <trkpt lat="48.74898950" lon="8.299296550">
        <ele>413.00000</ele>
        <time>2008-10-11T23:32:30Z</time>
      </trkpt>
      <trkpt lat="48.74867620" lon="8.299538870">
        <ele>395.00000</ele>
        <time>2008-10-11T23:32:44Z</time>
      </trkpt>
      <trkpt lat="48.74809400" lon="8.299920910">
        <ele>403.00000</ele>
        <time>2008-10-11T23:33:09Z</time>
      </trkpt>
      <trkpt lat="48.74778090" lon="8.300197220">
        <ele>387.00000</ele>
        <time>2008-10-11T23:33:24Z</time>
      </trkpt>
      <trkpt lat="48.74760280" lon="8.300471660">
        <ele>393.00000</ele>
        <time>2008-10-11T23:33:34Z</time>
      </trkpt>
      <trkpt lat="48.74693640" lon="8.301806700">
        <ele>386.00000</ele>
        <time>2008-10-11T23:34:18Z</time>
      </trkpt>
      <trkpt lat="48.74680170" lon="8.301842560">
        <ele>386.00000</ele>
        <time>2008-10-11T23:34:23Z</time>
      </trkpt>
      <trkpt lat="48.74667020" lon="8.302388290">
        <ele>382.00000</ele>
        <time>2008-10-11T23:34:39Z</time>
      </trkpt>
      <trkpt lat="48.74646850" lon="8.302493060">
        <ele>382.00000</ele>
        <time>2008-10-11T23:34:47Z</time>
      </trkpt>
      <trkpt lat="48.74566560" lon="8.303557980">
        <ele>392.00000</ele>
        <time>2008-10-11T23:35:30Z</time>
      </trkpt>
      <trkpt lat="48.74546510" lon="8.303866690">
        <ele>385.00000</ele>
        <time>2008-10-11T23:35:41Z</time>
      </trkpt>
      <trkpt lat="48.74542240" lon="8.304241210">
        <ele>385.00000</ele>
        <time>2008-10-11T23:35:51Z</time>
      </trkpt>
      <trkpt lat="48.74542860" lon="8.305260930">
        <ele>390.00000</ele>
        <time>2008-10-11T23:36:18Z</time>
      </trkpt>
      <trkpt lat="48.74538670" lon="8.305771410">
        <ele>423.00000</ele>
        <time>2008-10-11T23:36:32Z</time>
      </trkpt>
      <trkpt lat="48.74507650" lon="8.306523540">
        <ele>419.00000</ele>
        <time>2008-10-11T23:36:55Z</time>
      </trkpt>
      <trkpt lat="48.74492220" lon="8.307035560">
        <ele>419.00000</ele>
        <time>2008-10-11T23:37:10Z</time>
      </trkpt>
      <trkpt lat="48.74485740" lon="8.307478360">
        <ele>423.00000</ele>
        <time>2008-10-11T23:37:22Z</time>
      </trkpt>
      <trkpt lat="48.74506300" lon="8.308019430">
        <ele>439.00000</ele>
        <time>2008-10-11T23:37:39Z</time>
      </trkpt>
      <trkpt lat="48.74558410" lon="8.308692150">
        <ele>408.00000</ele>
        <time>2008-10-11T23:38:06Z</time>
      </trkpt>
      <trkpt lat="48.74588020" lon="8.309333970">
        <ele>420.00000</ele>
        <time>2008-10-11T23:38:27Z</time>
      </trkpt>
      <trkpt lat="48.74583690" lon="8.309606520">
        <ele>416.00000</ele>
        <time>2008-10-11T23:38:34Z</time>
      </trkpt>
      <trkpt lat="48.74559430" lon="8.310391690">
        <ele>416.00000</ele>
        <time>2008-10-11T23:38:57Z</time>
      </trkpt>
      <trkpt lat="48.74535130" lon="8.311108880">
        <ele>440.00000</ele>
        <time>2008-10-11T23:39:18Z</time>
      </trkpt>
      <trkpt lat="48.74517350" lon="8.311451250">
        <ele>439.00000</ele>
        <time>2008-10-11T23:39:30Z</time>
      </trkpt>
      <trkpt lat="48.74497200" lon="8.311589970">
        <ele>439.00000</ele>
        <time>2008-10-11T23:39:39Z</time>
      </trkpt>
      <trkpt lat="48.74492840" lon="8.311828520">
        <ele>439.00000</ele>
        <time>2008-10-11T23:39:45Z</time>
      </trkpt>
      <trkpt lat="48.74522130" lon="8.311926500">
        <ele>439.00000</ele>
        <time>2008-10-11T23:39:57Z</time>
      </trkpt>
      <trkpt lat="48.74573910" lon="8.312055410">
        <ele>411.00000</ele>
        <time>2008-10-11T23:40:18Z</time>
      </trkpt>
      <trkpt lat="48.74609940" lon="8.312152470">
        <ele>436.00000</ele>
        <time>2008-10-11T23:40:33Z</time>
      </trkpt>
      <trkpt lat="48.74684160" lon="8.312210330">
        <ele>423.00000</ele>
        <time>2008-10-11T23:41:03Z</time>
      </trkpt>
      <trkpt lat="48.74715690" lon="8.312308010">
        <ele>409.00000</ele>
        <time>2008-10-11T23:41:15Z</time>
      </trkpt>
      <trkpt lat="48.74745040" lon="8.312507980">
        <ele>409.00000</ele>
        <time>2008-10-11T23:41:28Z</time>
      </trkpt>
      <trkpt lat="48.74765470" lon="8.312845140">
        <ele>409.00000</ele>
        <time>2008-10-11T23:41:40Z</time>
      </trkpt>
      <trkpt lat="48.74788420" lon="8.313623900">
        <ele>423.00000</ele>
        <time>2008-10-11T23:42:03Z</time>
      </trkpt>
      <trkpt lat="48.74808950" lon="8.314131030">
        <ele>409.00000</ele>
        <time>2008-10-11T23:42:19Z</time>
      </trkpt>
      <trkpt lat="48.74840570" lon="8.314364700">
        <ele>409.00000</ele>
        <time>2008-10-11T23:42:33Z</time>
      </trkpt>
      <trkpt lat="48.74876370" lon="8.314087860">
        <ele>401.00000</ele>
        <time>2008-10-11T23:42:49Z</time>
      </trkpt>
      <trkpt lat="48.74896640" lon="8.314153090">
        <ele>401.00000</ele>
        <time>2008-10-11T23:42:57Z</time>
      </trkpt>
      <trkpt lat="48.74919390" lon="8.314591950">
        <ele>419.00000</ele>
        <time>2008-10-11T23:43:12Z</time>
      </trkpt>
      <trkpt lat="48.74951440" lon="8.315573480">
        <ele>437.00000</ele>
        <time>2008-10-11T23:43:41Z</time>
      </trkpt>
      <trkpt lat="48.74987950" lon="8.316486430">
        <ele>410.00000</ele>
        <time>2008-10-11T23:44:09Z</time>
      </trkpt>
      <trkpt lat="48.74990380" lon="8.316792070">
        <ele>410.00000</ele>
        <time>2008-10-11T23:44:17Z</time>
      </trkpt>
      <trkpt lat="48.74974830" lon="8.317100150">
        <ele>409.00000</ele>
        <time>2008-10-11T23:44:27Z</time>
      </trkpt>
      <trkpt lat="48.74943520" lon="8.317376360">
        <ele>431.00000</ele>
        <time>2008-10-11T23:44:42Z</time>
      </trkpt>
      <trkpt lat="48.74921220" lon="8.317685340">
        <ele>431.00000</ele>
        <time>2008-10-11T23:44:54Z</time>
      </trkpt>
      <trkpt lat="48.74903500" lon="8.318129690">
        <ele>424.00000</ele>
        <time>2008-10-11T23:45:08Z</time>
      </trkpt>
      <trkpt lat="48.74894850" lon="8.318708790">
        <ele>424.00000</ele>
        <time>2008-10-11T23:45:23Z</time>
      </trkpt>
      <trkpt lat="48.74899570" lon="8.319082110">
        <ele>425.00000</ele>
        <time>2008-10-11T23:45:33Z</time>
      </trkpt>
      <trkpt lat="48.74911110" lon="8.319590490">
        <ele>433.00000</ele>
        <time>2008-10-11T23:45:48Z</time>
      </trkpt>
      <trkpt lat="48.74954580" lon="8.320876480">
        <ele>444.00000</ele>
        <time>2008-10-11T23:46:26Z</time>
      </trkpt>
      <trkpt lat="48.75025030" lon="8.322158870">
        <ele>433.00000</ele>
        <time>2008-10-11T23:47:10Z</time>
      </trkpt>
      <trkpt lat="48.75081570" lon="8.322729210">
        <ele>401.00000</ele>
        <time>2008-10-11T23:47:37Z</time>
      </trkpt>
      <trkpt lat="48.75131220" lon="8.323062510">
        <ele>399.00000</ele>
        <time>2008-10-11T23:47:59Z</time>
      </trkpt>
      <trkpt lat="48.75167410" lon="8.323431630">
        <ele>399.00000</ele>
        <time>2008-10-11T23:48:16Z</time>
      </trkpt>
      <trkpt lat="48.75224180" lon="8.324409950">
        <ele>390.00000</ele>
        <time>2008-10-11T23:48:50Z</time>
      </trkpt>
      <trkpt lat="48.75283090" lon="8.325184020">
        <ele>400.00000</ele>
        <time>2008-10-11T23:49:22Z</time>
      </trkpt>
      <trkpt lat="48.75319250" lon="8.325519160">
        <ele>391.00000</ele>
        <time>2008-10-11T23:49:39Z</time>
      </trkpt>
      <trkpt lat="48.75317600" lon="8.326539350">
        <ele>389.00000</ele>
        <time>2008-10-11T23:50:06Z</time>
      </trkpt>
      <trkpt lat="48.75315570" lon="8.326913600">
        <ele>389.00000</ele>
        <time>2008-10-11T23:50:15Z</time>
      </trkpt>
      <trkpt lat="48.75297870" lon="8.327391950">
        <ele>390.00000</ele>
        <time>2008-10-11T23:50:30Z</time>
      </trkpt>
      <trkpt lat="48.75331750" lon="8.327659420">
        <ele>390.00000</ele>
        <time>2008-10-11T23:50:45Z</time>
      </trkpt>
      <trkpt lat="48.75575340" lon="8.329020930">
        <ele>353.00000</ele>
        <time>2008-10-11T23:52:29Z</time>
      </trkpt>
      <trkpt lat="48.75600240" lon="8.329323620">
        <ele>353.00000</ele>
        <time>2008-10-11T23:52:42Z</time>
      </trkpt>
      <trkpt lat="48.75622940" lon="8.329694610">
        <ele>356.00000</ele>
        <time>2008-10-11T23:52:55Z</time>
      </trkpt>
      <trkpt lat="48.75661310" lon="8.329961510">
        <ele>333.00000</ele>
        <time>2008-10-11T23:53:12Z</time>
      </trkpt>
      <trkpt lat="48.75697520" lon="8.330364710">
        <ele>333.00000</ele>
        <time>2008-10-11T23:53:30Z</time>
      </trkpt>
      <trkpt lat="48.75724530" lon="8.330429120">
        <ele>311.00000</ele>
        <time>2008-10-11T23:53:41Z</time>
      </trkpt>
      <trkpt lat="48.75762590" lon="8.330152050">
        <ele>310.00000</ele>
        <time>2008-10-11T23:53:58Z</time>
      </trkpt>
      <trkpt lat="48.75791550" lon="8.329706180">
        <ele>310.00000</ele>
        <time>2008-10-11T23:54:15Z</time>
      </trkpt>
      <trkpt lat="48.75809300" lon="8.329295790">
        <ele>291.00000</ele>
        <time>2008-10-11T23:54:28Z</time>
      </trkpt>
      <trkpt lat="48.75879200" lon="8.329660510">
        <ele>272.00000</ele>
        <time>2008-10-11T23:54:57Z</time>
      </trkpt>
      <trkpt lat="48.75915570" lon="8.330335730">
        <ele>272.00000</ele>
        <time>2008-10-11T23:55:20Z</time>
      </trkpt>
      <trkpt lat="48.75929350" lon="8.330843940">
        <ele>269.00000</ele>
        <time>2008-10-11T23:55:35Z</time>
      </trkpt>
      <trkpt lat="48.75967700" lon="8.331076870">
        <ele>252.00000</ele>
        <time>2008-10-11T23:55:51Z</time>
      </trkpt>
      <trkpt lat="48.75983560" lon="8.331278780">
        <ele>245.00000</ele>
        <time>2008-10-11T23:55:59Z</time>
      </trkpt>
      <trkpt lat="48.76026940" lon="8.332429140">
        <ele>237.00000</ele>
        <time>2008-10-11T23:56:34Z</time>
      </trkpt>
      <trkpt lat="48.76065550" lon="8.333104100">
        <ele>213.00000</ele>
        <time>2008-10-11T23:56:58Z</time>
      </trkpt>
      <trkpt lat="48.76083610" lon="8.333237730">
        <ele>213.00000</ele>
        <time>2008-10-11T23:57:06Z</time>
      </trkpt>
      <trkpt lat="48.76119690" lon="8.333436970">
        <ele>213.00000</ele>
        <time>2008-10-11T23:57:21Z</time>
      </trkpt>
      <trkpt lat="48.76144580" lon="8.333705720">
        <ele>194.00000</ele>
        <time>2008-10-11T23:57:34Z</time>
      </trkpt>
      <trkpt lat="48.76162620" lon="8.333805340">
        <ele>189.00000</ele>
        <time>2008-10-11T23:57:41Z</time>
      </trkpt>
      <trkpt lat="48.76207640" lon="8.333901400">
        <ele>189.00000</ele>
        <time>2008-10-11T23:58:00Z</time>
      </trkpt>
      <trkpt lat="48.76236940" lon="8.334033550">
        <ele>180.00000</ele>
        <time>2008-10-11T23:58:12Z</time>
      </trkpt>
      <trkpt lat="48.76261690" lon="8.334064280">
        <ele>180.00000</ele>
        <time>2008-10-11T23:58:22Z</time>
      </trkpt>
      <trkpt lat="48.76293260" lon="8.334230130">
        <ele>179.00000</ele>
        <time>2008-10-11T23:58:35Z</time>
      </trkpt>
      <trkpt lat="48.76288960" lon="8.334570760">
        <ele>180.00000</ele>
        <time>2008-10-11T23:58:44Z</time>
      </trkpt>
      <trkpt lat="48.76291890" lon="8.335760550">
        <ele>171.00000</ele>
        <time>2008-10-11T23:59:16Z</time>
      </trkpt>
      <trkpt lat="48.76348930" lon="8.337215280">
        <ele>167.00000</ele>
        <time>2008-10-12T00:00:00Z</time>
      </trkpt>
      <trkpt lat="48.76427260" lon="8.336592860">
        <ele>164.00000</ele>
        <time>2008-10-12T00:00:36Z</time>
      </trkpt>
      <trkpt lat="48.76534830" lon="8.336000570">
        <ele>163.00000</ele>
        <time>2008-10-12T00:01:22Z</time>
      </trkpt>
      <trkpt lat="48.76698770" lon="8.335706890">
        <ele>163.00000</ele>
        <time>2008-10-12T00:02:28Z</time>
      </trkpt>
      <trkpt lat="48.76732650" lon="8.335974490">
        <ele>161.00000</ele>
        <time>2008-10-12T00:02:43Z</time>
      </trkpt>
      <trkpt lat="48.76791130" lon="8.336034790">
        <ele>161.00000</ele>
        <time>2008-10-12T00:03:06Z</time>
      </trkpt>
    </trkseg>
  </trk>
</gpx>

